createdAt,value
2018-12-20T00:01:05.704Z,7.40
2018-12-20T00:03:33.888Z,7.30
2018-12-20T00:06:02.271Z,7.30
2018-12-20T00:08:30.601Z,7.20
2018-12-20T00:10:58.964Z,7.20
2018-12-20T00:13:27.242Z,7.20
2018-12-20T00:15:55.503Z,7.10
2018-12-20T00:18:23.876Z,7.00
2018-12-20T00:20:52.219Z,6.90
2018-12-20T00:23:20.543Z,6.80
2018-12-20T00:25:48.802Z,6.80
2018-12-20T00:28:18.371Z,6.70
2018-12-20T00:30:46.662Z,6.60
2018-12-20T00:33:15.059Z,6.50
2018-12-20T00:35:43.355Z,6.50
2018-12-20T00:38:11.624Z,6.50
2018-12-20T00:40:39.874Z,6.50
2018-12-20T00:43:08.190Z,6.50
2018-12-20T00:45:36.434Z,6.40
2018-12-20T00:48:04.698Z,6.30
2018-12-20T00:50:33.162Z,6.20
2018-12-20T00:53:01.446Z,6.20
2018-12-20T00:55:29.637Z,6.00
2018-12-20T00:57:58.046Z,5.90
2018-12-20T01:00:26.329Z,5.80
2018-12-20T01:02:55.333Z,5.70
2018-12-20T01:05:24.156Z,5.60
2018-12-20T01:07:52.482Z,5.50
2018-12-20T01:10:20.910Z,5.60
2018-12-20T01:12:49.194Z,5.50
2018-12-20T01:15:17.379Z,5.40
2018-12-20T01:17:45.739Z,5.30
2018-12-20T01:20:14.053Z,5.30
2018-12-20T01:22:42.318Z,5.20
2018-12-20T01:25:10.575Z,5.10
2018-12-20T01:27:38.783Z,5.20
2018-12-20T01:30:08.015Z,5.40
2018-12-20T01:32:36.237Z,5.30
2018-12-20T01:35:04.947Z,5.20
2018-12-20T01:37:33.151Z,5.30
2018-12-20T01:40:01.541Z,5.30
2018-12-20T01:42:29.878Z,5.20
2018-12-20T01:44:58.067Z,5.20
2018-12-20T01:47:26.827Z,5.20
2018-12-20T01:49:55.192Z,5.30
2018-12-20T01:52:23.522Z,5.40
2018-12-20T01:54:51.762Z,5.50
2018-12-20T01:57:20.059Z,5.50
2018-12-20T01:59:48.468Z,5.60
2018-12-20T02:02:16.715Z,5.70
2018-12-20T02:04:45.190Z,5.70
2018-12-20T02:07:13.639Z,5.60
2018-12-20T02:09:41.985Z,5.60
2018-12-20T02:12:10.269Z,5.60
2018-12-20T02:14:38.657Z,5.60
2018-12-20T02:17:07.030Z,5.70
2018-12-20T02:19:35.391Z,5.70
2018-12-20T02:22:03.726Z,5.80
2018-12-20T02:24:32.084Z,5.80
2018-12-20T02:27:00.463Z,5.90
2018-12-20T02:29:28.653Z,6.10
2018-12-20T02:31:59.270Z,6.00
2018-12-20T02:34:27.636Z,5.90
2018-12-20T02:36:55.939Z,5.80
2018-12-20T02:39:24.202Z,5.80
2018-12-20T02:41:52.723Z,5.90
2018-12-20T02:44:21.156Z,6.10
2018-12-20T02:46:49.667Z,6.10
2018-12-20T02:49:18.096Z,6.10
2018-12-20T02:51:46.350Z,6.10
2018-12-20T02:54:14.900Z,6.00
2018-12-20T02:56:43.313Z,6.10
2018-12-20T02:59:11.595Z,6.10
2018-12-20T03:01:43.117Z,6.10
2018-12-20T03:04:34.087Z,6.30
2018-12-20T03:07:02.387Z,6.40
2018-12-20T03:09:34.350Z,6.40
2018-12-20T03:12:15.603Z,6.50
2018-12-20T03:14:45.523Z,6.60
2018-12-20T03:17:20.177Z,6.70
2018-12-20T03:19:51.873Z,6.70
2018-12-20T03:22:22.178Z,6.60
2018-12-20T03:25:03.213Z,6.70
2018-12-20T03:27:44.283Z,6.70
2018-12-20T03:30:16.566Z,6.70
2018-12-20T03:32:57.499Z,6.70
2018-12-20T03:35:38.371Z,6.70
2018-12-20T03:38:18.539Z,6.70
2018-12-20T03:40:48.698Z,6.70
2018-12-20T03:43:20.939Z,6.70
2018-12-20T03:45:52.671Z,6.70
2018-12-20T03:48:22.192Z,6.70
2018-12-20T03:50:54.484Z,6.80
2018-12-20T03:53:29.157Z,6.80
2018-12-20T03:56:01.335Z,6.80
2018-12-20T03:58:33.483Z,6.80
2018-12-20T04:01:05.615Z,6.80
2018-12-20T04:03:46.773Z,6.80
2018-12-20T04:09:25.165Z,6.80
2018-12-20T04:23:51.368Z,7.00
2018-12-20T04:29:21.647Z,7.10
2018-12-20T04:32:03.442Z,7.10
2018-12-20T04:40:47.976Z,7.10
2018-12-20T04:46:19.089Z,7.10
2018-12-20T04:48:53.544Z,7.20
2018-12-20T04:51:25.083Z,7.10
2018-12-20T04:53:57.048Z,7.10
2018-12-20T04:56:31.399Z,7.10
2018-12-20T04:59:11.659Z,7.20
2018-12-20T05:01:56.234Z,7.20
2018-12-20T05:04:28.147Z,7.20
2018-12-20T05:07:02.946Z,7.20
2018-12-20T05:09:35.150Z,7.20
2018-12-20T05:12:15.436Z,7.20
2018-12-20T05:17:37.362Z,7.20
2018-12-20T05:20:06.210Z,7.20
2018-12-20T05:22:54.882Z,7.20
2018-12-20T05:25:23.277Z,7.20
2018-12-20T05:27:51.556Z,7.20
2018-12-20T05:30:19.918Z,7.20
2018-12-20T05:32:48.196Z,7.20
2018-12-20T05:35:16.721Z,7.20
2018-12-20T05:37:45.163Z,7.20
2018-12-20T05:40:13.907Z,7.20
2018-12-20T05:42:42.245Z,7.30
2018-12-20T05:45:10.579Z,7.30
2018-12-20T05:47:38.999Z,7.20
2018-12-20T05:50:07.596Z,7.30
2018-12-20T05:52:35.901Z,7.30
2018-12-20T05:55:04.384Z,7.30
2018-12-20T05:57:32.685Z,7.30
2018-12-20T06:00:01.537Z,7.30
2018-12-20T06:02:29.958Z,7.30
2018-12-20T06:04:58.443Z,7.30
2018-12-20T06:07:26.794Z,7.30
2018-12-20T06:09:55.090Z,7.40
2018-12-20T06:12:23.548Z,7.40
2018-12-20T06:14:51.833Z,7.30
2018-12-20T06:17:20.478Z,7.40
2018-12-20T06:19:48.807Z,7.40
2018-12-20T06:22:17.070Z,7.30
2018-12-20T06:24:45.403Z,7.30
2018-12-20T06:30:27.372Z,7.40
2018-12-20T06:33:01.343Z,7.40
2018-12-20T06:35:37.104Z,7.40
2018-12-20T06:38:11.918Z,7.40
2018-12-20T06:40:47.632Z,7.30
2018-12-20T06:43:28.696Z,7.30
2018-12-20T06:46:02.507Z,7.30
2018-12-20T06:48:39.011Z,7.20
2018-12-20T06:51:13.927Z,7.20
2018-12-20T06:54:01.849Z,7.20
2018-12-20T06:56:31.627Z,7.20
2018-12-20T06:58:59.957Z,7.10
2018-12-20T07:01:28.244Z,7.10
2018-12-20T07:03:56.539Z,7.10
2018-12-20T07:06:24.794Z,7.10
2018-12-20T07:08:53.179Z,7.10
2018-12-20T07:11:21.486Z,7.10
2018-12-20T07:13:49.844Z,7.00
2018-12-20T07:16:18.177Z,7.00
2018-12-20T07:18:46.440Z,7.00
2018-12-20T07:21:14.740Z,6.90
2018-12-20T07:23:43.143Z,6.90
2018-12-20T07:26:11.401Z,6.90
2018-12-20T07:28:39.672Z,6.90
2018-12-20T07:31:07.953Z,6.80
2018-12-20T07:33:36.239Z,6.80
2018-12-20T07:36:04.715Z,6.80
2018-12-20T07:38:33.002Z,6.70
2018-12-20T07:41:01.395Z,6.70
2018-12-20T07:43:29.627Z,6.70
2018-12-20T07:45:57.938Z,6.80
2018-12-20T07:48:32.068Z,6.80
2018-12-20T07:50:56.535Z,6.80
2018-12-20T07:53:24.799Z,6.80
2018-12-20T07:55:53.256Z,6.80
2018-12-20T07:58:21.511Z,6.80
2018-12-20T08:00:49.753Z,6.80
2018-12-20T08:03:18.046Z,6.80
2018-12-20T08:05:46.321Z,6.90
2018-12-20T08:08:14.565Z,6.90
2018-12-20T08:10:42.899Z,7.00
2018-12-20T08:13:11.147Z,7.00
2018-12-20T08:15:39.415Z,7.00
2018-12-20T08:18:07.763Z,7.10
2018-12-20T08:20:36.019Z,7.10
2018-12-20T08:23:04.270Z,7.20
2018-12-20T08:25:32.540Z,7.20
2018-12-20T08:28:01.279Z,7.20
2018-12-20T08:30:29.543Z,7.20
2018-12-20T08:32:57.808Z,7.20
2018-12-20T08:35:26.145Z,7.30
2018-12-20T08:37:54.896Z,7.30
2018-12-20T08:40:23.167Z,7.30
2018-12-20T08:42:51.741Z,7.30
2018-12-20T08:45:20.040Z,7.40
2018-12-20T08:47:48.315Z,7.30
2018-12-20T08:50:16.588Z,7.40
2018-12-20T08:52:44.872Z,7.30
2018-12-20T08:55:13.232Z,7.40
2018-12-20T08:57:41.524Z,7.40
2018-12-20T09:00:10.102Z,7.50
2018-12-20T09:02:38.400Z,7.40
2018-12-20T09:05:06.861Z,7.50
2018-12-20T09:07:35.227Z,7.50
2018-12-20T09:10:03.913Z,7.60
2018-12-20T09:12:32.212Z,7.60
2018-12-20T09:15:00.584Z,7.60
2018-12-20T09:17:28.943Z,7.70
2018-12-20T09:19:57.220Z,7.70
2018-12-20T09:22:30.017Z,7.80
2018-12-20T09:24:58.301Z,7.80
2018-12-20T09:27:26.707Z,7.80
2018-12-20T09:29:55.068Z,7.80
2018-12-20T09:32:23.364Z,7.80
2018-12-20T09:34:51.647Z,7.80
2018-12-20T09:37:19.988Z,7.90
2018-12-20T09:39:48.261Z,7.90
2018-12-20T09:42:16.547Z,7.90
2018-12-20T09:44:44.809Z,7.90
2018-12-20T09:47:18.359Z,7.90
2018-12-20T09:49:46.615Z,8.00
2018-12-20T09:52:14.998Z,8.00
2018-12-20T09:54:43.328Z,8.00
2018-12-20T09:57:11.878Z,8.00
2018-12-20T09:59:40.161Z,8.10
2018-12-20T10:02:08.404Z,8.10
2018-12-20T10:04:36.683Z,8.00
2018-12-20T10:07:05.036Z,8.00
2018-12-20T10:09:33.307Z,8.00
2018-12-20T10:12:01.665Z,8.00
2018-12-20T10:14:29.956Z,8.00
2018-12-20T10:16:58.450Z,8.00
2018-12-20T10:19:26.835Z,8.00
2018-12-20T10:21:55.195Z,8.10
2018-12-20T10:24:23.743Z,8.10
2018-12-20T10:26:52.135Z,8.10
2018-12-20T10:29:20.427Z,8.20
2018-12-20T10:31:48.681Z,8.20
2018-12-20T10:34:17.039Z,8.20
2018-12-20T10:36:50.412Z,8.30
2018-12-20T10:39:18.800Z,8.40
2018-12-20T10:41:47.243Z,8.50
2018-12-20T10:44:15.539Z,8.60
2018-12-20T10:46:44.201Z,8.60
2018-12-20T10:49:12.785Z,8.60
2018-12-20T10:51:41.027Z,8.70
2018-12-20T10:54:09.303Z,8.80
2018-12-20T10:56:37.585Z,8.90
2018-12-20T10:59:05.860Z,8.70
2018-12-20T11:01:39.632Z,8.70
2018-12-20T11:04:13.261Z,8.80
2018-12-20T11:06:47.009Z,8.90
2018-12-20T11:11:22.516Z,8.90
2018-12-20T11:13:50.856Z,9.00
2018-12-20T11:16:19.108Z,8.90
2018-12-20T11:18:47.368Z,8.90
2018-12-20T11:21:15.763Z,8.80
2018-12-20T11:23:44.069Z,8.90
2018-12-20T11:26:12.472Z,9.00
2018-12-20T11:28:40.832Z,9.10
2018-12-20T11:31:10.963Z,9.10
2018-12-20T11:33:41.598Z,8.90
2018-12-20T11:36:09.971Z,8.90
2018-12-20T11:38:39.347Z,8.80
2018-12-20T11:41:07.721Z,8.80
2018-12-20T11:43:36.004Z,8.70
2018-12-20T11:46:04.295Z,8.60
2018-12-20T11:48:32.631Z,8.40
2018-12-20T11:51:00.896Z,8.50
2018-12-20T11:53:29.174Z,8.50
2018-12-20T11:55:57.512Z,8.60
2018-12-20T11:58:25.963Z,8.60
2018-12-20T12:00:54.310Z,8.60
2018-12-20T12:03:22.560Z,8.60
2018-12-20T12:05:50.856Z,8.60
2018-12-20T12:08:19.137Z,8.50
2018-12-20T12:10:47.395Z,8.50
2018-12-20T12:13:15.780Z,8.50
2018-12-20T12:15:44.229Z,8.50
2018-12-20T12:18:12.507Z,8.50
2018-12-20T12:20:40.807Z,8.50
2018-12-20T12:23:09.070Z,8.50
2018-12-20T12:25:37.702Z,8.50
2018-12-20T12:28:06.071Z,8.60
2018-12-20T12:30:34.399Z,8.60
2018-12-20T12:33:02.755Z,8.70
2018-12-20T12:35:31.083Z,8.80
2018-12-20T12:37:59.444Z,8.90
2018-12-20T12:40:27.894Z,9.10
2018-12-20T12:42:56.222Z,9.10
2018-12-20T12:45:24.594Z,9.20
2018-12-20T12:48:03.570Z,9.30
2018-12-20T12:50:30.616Z,9.10
2018-12-20T12:52:58.888Z,8.90
2018-12-20T12:55:27.175Z,8.90
2018-12-20T12:57:55.441Z,8.90
2018-12-20T13:00:23.719Z,8.90
2018-12-20T13:02:52.283Z,8.90
2018-12-20T13:05:20.575Z,8.90
2018-12-20T13:07:48.878Z,8.90
2018-12-20T13:10:17.988Z,8.80
2018-12-20T13:12:46.366Z,8.80
2018-12-20T13:15:14.620Z,8.80
2018-12-20T13:17:42.933Z,8.70
2018-12-20T13:20:11.583Z,8.70
2018-12-20T13:22:39.936Z,8.70
2018-12-20T13:25:08.642Z,8.70
2018-12-20T13:27:37.039Z,8.80
2018-12-20T13:30:09.341Z,8.90
2018-12-20T13:32:43.759Z,8.90
2018-12-20T13:35:11.990Z,8.90
2018-12-20T13:40:36.644Z,9.00
2018-12-20T13:43:05.057Z,8.90
2018-12-20T13:45:33.409Z,8.90
2018-12-20T13:48:01.842Z,8.90
2018-12-20T13:56:38.795Z,8.70
2018-12-20T13:59:14.935Z,8.60
2018-12-20T14:04:57.635Z,8.50
2018-12-20T14:07:37.989Z,8.50
2018-12-20T14:10:22.786Z,8.50
2018-12-20T14:12:51.166Z,8.50
2018-12-20T14:21:11.971Z,8.40
2018-12-20T14:23:40.357Z,8.40
2018-12-20T14:26:08.996Z,8.40
2018-12-20T14:28:37.261Z,8.40
2018-12-20T14:31:05.565Z,8.40
2018-12-20T14:33:33.857Z,8.30
2018-12-20T14:47:43.311Z,8.30
2018-12-20T14:50:11.590Z,8.30
2018-12-20T14:52:39.807Z,8.30
2018-12-20T14:55:09.385Z,8.30
2018-12-20T15:00:38.918Z,8.20
2018-12-20T15:03:17.515Z,8.20
2018-12-20T15:05:55.464Z,8.10
2018-12-20T15:08:23.644Z,8.00
2018-12-20T15:10:51.987Z,8.00
2018-12-20T15:13:20.274Z,8.00
2018-12-20T15:15:48.575Z,7.90
2018-12-20T15:18:16.830Z,7.80
2018-12-20T15:20:45.115Z,7.70
2018-12-20T15:23:14.345Z,7.70
2018-12-20T15:25:44.193Z,7.60
2018-12-20T15:28:13.490Z,7.60
2018-12-20T15:30:41.711Z,7.50
2018-12-20T15:33:09.946Z,7.50
2018-12-20T15:35:38.223Z,7.40
2018-12-20T15:38:06.487Z,7.40
2018-12-20T15:40:34.684Z,7.40
2018-12-20T15:43:02.907Z,7.30
2018-12-20T15:45:53.353Z,7.30
2018-12-20T15:48:27.356Z,7.40
2018-12-20T15:51:17.907Z,7.30
2018-12-20T15:53:52.113Z,7.40
2018-12-20T15:56:26.124Z,7.30
2018-12-20T15:58:57.649Z,7.30
2018-12-20T16:07:24.080Z,7.30
2018-12-20T16:10:04.546Z,7.30
2018-12-20T16:12:44.374Z,7.30
2018-12-20T16:15:13.989Z,7.30
2018-12-20T16:17:47.458Z,7.30
2018-12-20T16:20:28.404Z,7.30
2018-12-20T16:23:02.912Z,7.30
2018-12-20T16:25:34.609Z,7.30
2018-12-20T16:28:09.105Z,7.30
2018-12-20T16:30:42.775Z,7.30
2018-12-20T16:33:15.348Z,7.30
2018-12-20T16:36:02.611Z,7.30
2018-12-20T16:38:34.427Z,7.40
2018-12-20T16:41:16.382Z,7.20
2018-12-20T16:43:46.322Z,7.20
2018-12-20T16:46:18.562Z,7.20
2018-12-20T16:48:48.629Z,7.20
2018-12-20T16:54:15.899Z,7.20
2018-12-20T16:56:48.168Z,7.20
2018-12-20T16:59:19.428Z,7.20
2018-12-20T17:01:59.667Z,7.20
2018-12-20T17:04:36.412Z,7.20
2018-12-20T17:07:12.224Z,7.20
2018-12-20T17:09:45.179Z,7.20
2018-12-20T17:12:15.113Z,7.20
2018-12-20T17:14:44.776Z,7.20
2018-12-20T17:17:13.175Z,7.20
2018-12-20T17:19:41.529Z,7.20
2018-12-20T17:22:09.956Z,7.20
2018-12-20T17:24:38.359Z,7.20
2018-12-20T17:27:06.734Z,7.20
2018-12-20T17:29:35.077Z,7.30
2018-12-20T17:32:03.531Z,7.30
2018-12-20T17:34:31.914Z,7.30
2018-12-20T17:37:00.252Z,7.30
2018-12-20T17:39:28.608Z,7.30
2018-12-20T17:41:56.957Z,7.30
2018-12-20T17:44:25.397Z,7.20
2018-12-20T17:46:57.456Z,7.20
2018-12-20T17:49:30.449Z,7.20
2018-12-20T17:51:56.158Z,7.20
2018-12-20T17:54:24.577Z,7.20
2018-12-20T17:56:52.977Z,7.20
2018-12-20T17:59:21.325Z,7.20
2018-12-20T18:01:49.963Z,7.20
2018-12-20T18:04:18.277Z,7.20
2018-12-20T18:06:46.559Z,7.20
2018-12-20T18:09:24.512Z,7.20
2018-12-20T18:11:52.828Z,7.20
2018-12-20T18:14:21.172Z,7.20
2018-12-20T18:16:49.552Z,7.10
2018-12-20T18:19:17.933Z,7.10
2018-12-20T18:21:46.525Z,7.10
2018-12-20T18:27:14.145Z,7.10
2018-12-20T18:29:54.843Z,7.20
2018-12-20T18:32:23.148Z,7.20
2018-12-20T18:34:51.496Z,7.20
2018-12-20T18:37:33.297Z,7.20
2018-12-20T18:40:13.670Z,7.20
2018-12-20T18:42:41.859Z,7.20
2018-12-20T18:45:10.270Z,7.20
2018-12-20T18:47:38.627Z,7.20
2018-12-20T18:50:08.842Z,7.20
2018-12-20T18:55:30.425Z,7.20
2018-12-20T18:58:14.821Z,7.20
2018-12-20T19:00:44.310Z,7.20
2018-12-20T19:03:33.064Z,7.20
2018-12-20T19:06:01.347Z,7.20
2018-12-20T19:08:29.547Z,7.20
2018-12-20T19:11:03.446Z,7.20
2018-12-20T19:13:50.510Z,7.20
2018-12-20T19:16:31.631Z,7.20
2018-12-20T19:19:05.522Z,6.70
2018-12-20T19:21:40.227Z,7.20
2018-12-20T19:24:22.205Z,7.20
2018-12-20T19:27:14.174Z,7.20
2018-12-20T19:29:42.390Z,7.20
2018-12-20T19:32:11.703Z,7.20
2018-12-20T19:34:41.047Z,7.20
2018-12-20T19:37:09.375Z,7.20
2018-12-20T19:39:46.447Z,7.20
2018-12-20T19:42:16.184Z,7.20
2018-12-20T19:44:44.458Z,7.30
2018-12-20T19:47:16.560Z,7.30
2018-12-20T19:49:44.916Z,7.30
2018-12-20T19:52:13.311Z,7.30
2018-12-20T19:54:47.897Z,7.30
2018-12-20T19:57:11.974Z,7.40
2018-12-20T20:02:44.567Z,7.30
2018-12-20T20:05:12.969Z,7.30
2018-12-20T20:10:46.523Z,7.30
2018-12-20T20:13:19.269Z,7.30
2018-12-20T20:15:57.052Z,7.40
2018-12-20T20:18:25.317Z,7.40
2018-12-20T20:21:00.977Z,7.40
2018-12-20T20:23:29.440Z,7.40
2018-12-20T20:26:05.179Z,7.50
2018-12-20T20:34:52.227Z,7.40
2018-12-20T20:37:35.963Z,7.40
2018-12-20T20:40:10.013Z,7.40
2018-12-20T20:42:44.740Z,7.40
2018-12-20T20:51:20.398Z,7.40
2018-12-20T20:57:00.308Z,7.40
2018-12-20T20:59:29.059Z,7.40
2018-12-20T21:01:58.695Z,7.40
2018-12-20T21:04:27.088Z,7.40
2018-12-20T21:06:55.546Z,7.40
2018-12-20T21:09:34.038Z,7.40
2018-12-20T21:12:06.144Z,7.40
2018-12-20T21:14:34.411Z,7.50
2018-12-20T21:17:02.717Z,7.50
2018-12-20T21:19:31.187Z,7.50
2018-12-20T21:21:59.579Z,7.50
2018-12-20T21:24:27.914Z,7.50
2018-12-20T21:26:59.754Z,7.50
2018-12-20T21:29:44.878Z,7.50
2018-12-20T21:35:13.235Z,7.50
2018-12-20T21:37:43.086Z,7.50
2018-12-20T21:46:09.518Z,7.50
2018-12-20T21:48:56.040Z,7.50
2018-12-20T21:51:24.584Z,7.50
2018-12-20T22:02:48.411Z,7.50
2018-12-20T22:05:18.594Z,7.50
2018-12-20T22:08:07.085Z,7.50
2018-12-20T22:13:36.080Z,7.50
2018-12-20T22:16:26.796Z,7.40
2018-12-20T22:18:55.063Z,7.40
2018-12-20T22:21:31.154Z,7.40
2018-12-20T22:24:02.648Z,7.40
2018-12-20T22:26:31.175Z,7.40
2018-12-20T22:28:59.593Z,7.40
2018-12-20T22:31:27.862Z,7.40
2018-12-20T22:33:56.251Z,7.40
2018-12-20T22:36:24.548Z,7.40
2018-12-20T22:38:52.924Z,7.40
2018-12-20T22:41:21.894Z,7.30
2018-12-20T22:43:50.172Z,7.30
2018-12-20T22:46:18.920Z,7.30
2018-12-20T22:48:47.284Z,7.30
2018-12-20T22:51:15.584Z,7.30
2018-12-20T22:53:43.933Z,7.20
2018-12-20T22:56:12.259Z,7.20
2018-12-20T22:58:40.575Z,7.20
2018-12-20T23:01:09.032Z,7.10
2018-12-20T23:03:37.495Z,7.20
2018-12-20T23:06:11.788Z,7.20
2018-12-20T23:08:40.108Z,7.20
2018-12-20T23:11:08.453Z,7.10
2018-12-20T23:13:36.915Z,7.10
2018-12-20T23:16:05.278Z,7.10
2018-12-20T23:18:33.606Z,7.10
2018-12-20T23:21:05.129Z,7.10
2018-12-20T23:23:32.280Z,7.10
2018-12-20T23:26:00.573Z,7.20
2018-12-20T23:28:29.021Z,7.20
2018-12-20T23:30:57.550Z,7.10
2018-12-20T23:33:25.934Z,7.10
2018-12-20T23:35:54.500Z,7.20
2018-12-20T23:38:23.892Z,7.20
2018-12-20T23:40:52.196Z,7.10
2018-12-20T23:43:20.504Z,7.10
2018-12-20T23:45:48.829Z,7.20
2018-12-20T23:48:17.413Z,7.20
2018-12-20T23:50:45.857Z,7.30
2018-12-20T23:53:18.035Z,7.30
2018-12-20T23:55:46.325Z,7.30
2018-12-20T23:58:14.621Z,7.30
